CheckWX is a tool to help pilots better visualize weather data.  It is not intended as a substitute for an official pre-flight weather briefing.

05:38:34 UTC

KHQZ METAR
Mesquite Metro Airport
Mesquite, Texas, USA
Current

24 mins ago

KHQZ 240515Z AUTO 31015G19KT 10SM CLR 10/00 A3015 RMK AO1 T00970001
Observed
Feb-24 @ 05:15 UTC
Wind
  • 310° at 15 KTS
  • Gusting to 19 KTS
Visibility
10 SM
Flight Rules
VFR
Cloud Levels
  • Clear skies
Temperature
10°C / 50°F
Dewpoint
C / 32°F
Humidity
50%
Altimeter
30.15" Hg
Pressure
1021.02 hPa
Previous

44 mins ago

KHQZ 240455Z AUTO 30013G19KT 10SM CLR 10/00 A3014 RMK AO1 T01020000
Observed
Feb-24 @ 04:55 UTC
Wind
  • 300° at 13 KTS
  • Gusting to 19 KTS
Visibility
10 SM
Flight Rules
VFR
Cloud Levels
  • Clear skies
Temperature
10°C / 50°F
Dewpoint
C / 32°F
Humidity
50%
Altimeter
30.14" Hg
Pressure
1020.62 hPa
Previous

1 hour ago

KHQZ 240435Z AUTO 30013KT 10SM CLR 11/00 A3013 RMK AO1 T01050001
Observed
Feb-24 @ 04:35 UTC
Wind
  • 300° at 13 KTS
Visibility
10 SM
Flight Rules
VFR
Cloud Levels
  • Clear skies
Temperature
11°C / 52°F
Dewpoint
C / 32°F
Humidity
47%
Altimeter
30.13" Hg
Pressure
1020.32 hPa